Time;durP1;ratioP1;P1;durP2;ratioP2;P2;SDS_P1;SDS_P2;PMS_P1;PMS_P2;Temp;Humidity;BMP_temperature;BMP_pressure;BME280_temperature;BME280_humidity;BME280_pressure;Samples;Min_cycle;Max_cycle;Signal;HPM_P1;HPM_P2
2023/05/31 00:00:28;;;;;;;5.77;4.23;;;;;;;11.10;100.00;103101.81;5039048;28;20715;-67
2023/05/31 00:02:53;;;;;;;5.10;3.60;;;;;;;10.67;100.00;103025.38;5036609;28;20188;-67
2023/05/31 00:05:19;;;;;;;7.60;3.97;;;;;;;11.21;100.00;103100.78;5037587;28;20184;-67
2023/05/31 00:07:44;;;;;;;5.20;3.50;;;;;;;11.24;100.00;103095.97;5041109;28;20190;-67
2023/05/31 00:10:10;;;;;;;5.57;3.57;;;;;;;11.09;100.00;103100.97;5042420;28;20221;-67
2023/05/31 00:12:35;;;;;;;6.20;3.90;;;;;;;10.99;100.00;103078.69;5037300;28;20561;-67
2023/05/31 00:15:01;;;;;;;6.43;4.00;;;;;;;11.26;100.00;103093.16;5037460;28;20214;-67
2023/05/31 00:17:26;;;;;;;5.93;3.37;;;;;;;10.30;100.00;102961.81;5032999;28;20613;-67
2023/05/31 00:19:51;;;;;;;6.53;3.90;;;;;;;11.04;100.00;103091.66;5039874;28;20203;-67
2023/05/31 00:22:17;;;;;;;6.33;4.03;;;;;;;10.95;100.00;103076.44;5032719;28;20348;-67
2023/05/31 00:24:43;;;;;;;6.17;3.97;;;;;;;11.15;100.00;103098.69;5037629;28;20183;-67
2023/05/31 00:27:09;;;;;;;5.20;3.90;;;;;;;11.16;100.00;103105.75;5038909;28;20188;-67
2023/05/31 00:29:34;;;;;;;8.50;4.17;;;;;;;11.01;100.00;103095.47;5039522;28;21002;-67
2023/05/31 00:32:00;;;;;;;6.63;4.33;;;;;;;10.40;100.00;103018.09;5042651;28;20191;-67
2023/05/31 00:34:25;;;;;;;6.30;3.77;;;;;;;11.01;100.00;103095.47;5040112;28;20195;-67
2023/05/31 00:36:51;;;;;;;6.67;4.43;;;;;;;10.58;100.00;103021.72;5041789;28;20190;-67
2023/05/31 00:39:17;;;;;;;7.53;3.70;;;;;;;10.40;100.00;102983.22;5039126;28;20235;-67
2023/05/31 00:41:42;;;;;;;8.90;4.30;;;;;;;10.97;100.00;103095.94;5040595;28;20530;-67
2023/05/31 00:44:07;;;;;;;7.37;5.07;;;;;;;10.94;100.00;103088.19;5039704;28;20322;-67
2023/05/31 00:46:36;;;;;;;7.57;4.97;;;;;;;10.76;100.00;103072.84;5040150;28;20233;-66
2023/05/31 00:49:02;;;;;;;7.90;4.20;;;;;;;10.88;100.00;103084.25;5042710;28;20246;-67
2023/05/31 00:51:30;;;;;;;5.77;4.30;;;;;;;10.88;100.00;103078.88;5043224;28;20425;-67
2023/05/31 00:53:57;;;;;;;5.80;4.20;;;;;;;10.90;100.00;103063.44;5039812;28;20441;-67
2023/05/31 00:56:22;;;;;;;6.10;4.10;;;;;;;10.48;100.00;103020.06;5042222;28;20457;-67
2023/05/31 00:58:50;;;;;;;6.57;3.90;;;;;;;10.24;100.00;102985.63;5038755;28;20524;-67
2023/05/31 01:01:17;;;;;;;5.80;4.10;;;;;;;10.75;100.00;103075.66;5036062;28;20253;-67
2023/05/31 01:03:42;;;;;;;6.30;4.60;;;;;;;10.73;100.00;103059.69;5035238;28;20485;-67
2023/05/31 01:06:08;;;;;;;7.10;4.30;;;;;;;10.79;100.00;103079.72;5035289;28;20740;-67
2023/05/31 01:08:35;;;;;;;6.60;4.30;;;;;;;10.72;100.00;103079.47;5035937;28;20732;-67
2023/05/31 01:11:32;;;;;;;7.40;4.87;;;;;;;10.75;100.00;103089.06;5038484;28;20438;-67
2023/05/31 01:14:09;;;;;;;7.57;4.70;;;;;;;10.03;100.00;102983.97;5013116;28;20861;-67
2023/05/31 01:16:39;;;;;;;8.70;4.80;;;;;;;10.67;100.00;103097.84;5037422;28;20615;-66
2023/05/31 01:19:12;;;;;;;6.50;4.37;;;;;;;10.54;100.00;103084.72;5033472;28;20565;-67
2023/05/31 01:21:51;;;;;;;9.20;5.27;;;;;;;10.31;100.00;103027.03;5035614;28;20541;-69
2023/05/31 01:24:41;;;;;;;5.10;4.60;;;;;;;10.69;100.00;103090.50;5035419;28;20468;-67
2023/05/31 01:27:08;;;;;;;7.83;5.30;;;;;;;10.58;100.00;103061.97;5037277;28;20442;-67
2023/05/31 01:29:35;;;;;;;9.23;5.20;;;;;;;10.10;100.00;103001.19;5037384;28;21042;-67
2023/05/31 01:32:02;;;;;;;6.70;5.13;;;;;;;10.13;100.00;103029.56;5039676;28;20534;-67
2023/05/31 01:34:27;;;;;;;7.73;5.10;;;;;;;10.67;100.00;103121.16;5035949;28;20445;-67
2023/05/31 01:36:53;;;;;;;5.87;4.57;;;;;;;10.64;100.00;103143.75;5035679;28;20512;-67
2023/05/31 01:39:19;;;;;;;7.80;5.43;;;;;;;10.69;100.00;103156.75;5037125;28;20212;-67
2023/05/31 01:41:46;;;;;;;8.20;5.60;;;;;;;10.69;100.00;103170.19;5037634;28;20188;-66
2023/05/31 01:44:13;;;;;;;7.73;5.30;;;;;;;10.76;100.00;103171.28;5035996;28;20441;-67
2023/05/31 01:46:41;;;;;;;12.10;5.87;;;;;;;10.54;100.00;103181.34;5029551;28;20947;-67
2023/05/31 01:49:07;;;;;;;10.33;6.43;;;;;;;10.09;100.00;103106.72;5036250;28;20964;-67
2023/05/31 01:51:35;;;;;;;7.63;6.30;;;;;;;10.39;100.00;103153.25;5033377;28;20452;-66
2023/05/31 01:54:01;;;;;;;11.87;7.10;;;;;;;10.67;100.00;103180.19;5037403;28;20210;-67
2023/05/31 01:56:30;;;;;;;9.27;6.20;;;;;;;10.67;100.00;103201.66;5036478;28;20556;-67
2023/05/31 01:58:58;;;;;;;11.17;6.73;;;;;;;10.71;100.00;103201.25;5039796;28;20290;-67
2023/05/31 02:01:23;;;;;;;11.13;6.73;;;;;;;10.63;100.00;103211.84;5037214;28;20467;-67
2023/05/31 02:03:53;;;;;;;15.00;7.60;;;;;;;10.61;100.00;103206.59;5033664;28;20497;-67
2023/05/31 02:06:18;;;;;;;13.00;6.90;;;;;;;10.51;100.00;103218.34;5034924;28;20302;-67
2023/05/31 02:08:44;;;;;;;9.80;7.17;;;;;;;10.09;100.00;103152.31;5037131;28;21002;-67
2023/05/31 02:11:09;;;;;;;11.50;6.97;;;;;;;10.65;100.00;103211.72;5039248;28;20188;-67
2023/05/31 02:13:35;;;;;;;11.13;6.90;;;;;;;9.90;100.00;103122.81;5036468;28;20200;-67
2023/05/31 02:16:03;;;;;;;10.13;6.27;;;;;;;10.22;100.00;103149.38;5035178;28;20215;-67
2023/05/31 02:18:29;;;;;;;7.60;6.10;;;;;;;10.62;100.00;103200.28;5035289;28;20215;-67
2023/05/31 02:20:54;;;;;;;10.17;6.33;;;;;;;10.67;100.00;103209.72;5035033;28;20977;-67
2023/05/31 02:23:20;;;;;;;11.40;6.77;;;;;;;10.06;100.00;103135.66;5037793;28;20196;-66
2023/05/31 02:25:50;;;;;;;9.70;5.90;;;;;;;10.68;100.00;103214.97;5039191;28;20198;-67
2023/05/31 02:28:16;;;;;;;11.07;6.27;;;;;;;10.62;100.00;103210.16;5038267;28;20196;-67
2023/05/31 02:30:41;;;;;;;9.10;6.10;;;;;;;10.72;100.00;103211.00;5040833;28;20993;-67
2023/05/31 02:33:08;;;;;;;8.50;6.90;;;;;;;10.80;100.00;103203.09;5039268;28;20435;-67
2023/05/31 02:35:33;;;;;;;12.20;6.47;;;;;;;10.34;100.00;103132.19;5039301;28;20207;-67
2023/05/31 02:37:59;;;;;;;8.80;6.77;;;;;;;10.50;100.00;103187.13;5038905;28;20855;-67
2023/05/31 02:40:25;;;;;;;11.97;7.40;;;;;;;10.56;100.00;103173.16;5040136;28;20204;-67
2023/05/31 02:42:50;;;;;;;9.00;6.80;;;;;;;9.64;100.00;103056.31;5038115;28;20431;-67
2023/05/31 02:45:16;;;;;;;8.33;6.10;;;;;;;10.40;100.00;103161.13;5040335;28;20189;-66
2023/05/31 02:47:41;;;;;;;13.03;6.07;;;;;;;10.23;100.00;103132.28;5039570;28;20219;-67
2023/05/31 02:50:09;;;;;;;6.57;5.87;;;;;;;10.31;100.00;103158.47;5037390;28;20701;-66
2023/05/31 02:52:35;;;;;;;9.60;6.27;;;;;;;10.40;100.00;103168.34;5030827;28;20191;-67
2023/05/31 02:55:00;;;;;;;10.00;6.07;;;;;;;9.74;100.00;103045.63;5034756;28;20896;-67
2023/05/31 02:57:26;;;;;;;9.30;6.67;;;;;;;9.79;100.00;103047.88;5038115;28;20470;-66
2023/05/31 02:59:55;;;;;;;11.23;6.67;;;;;;;9.50;100.00;103003.97;5036206;28;20979;-67
2023/05/31 03:02:21;;;;;;;10.40;5.57;;;;;;;10.29;100.00;103144.31;5030051;28;20195;-67
2023/05/31 03:04:48;;;;;;;10.00;6.43;;;;;;;10.28;100.00;103158.75;5031292;28;20438;-67
2023/05/31 03:07:13;;;;;;;9.30;5.87;;;;;;;10.16;100.00;103163.34;5037008;28;20274;-67
2023/05/31 03:09:39;;;;;;;10.53;5.73;;;;;;;9.48;100.00;103056.00;5038265;28;20472;-67
2023/05/31 03:12:05;;;;;;;11.33;5.77;;;;;;;10.17;100.00;103167.72;5033725;28;20641;-66
2023/05/31 03:14:31;;;;;;;7.77;6.00;;;;;;;10.08;100.00;103161.34;5035838;28;20196;-67
2023/05/31 03:16:56;;;;;;;9.93;5.90;;;;;;;10.24;100.00;103171.56;5036784;28;20447;-67
2023/05/31 03:19:22;;;;;;;9.53;5.67;;;;;;;9.92;100.00;103142.28;5037450;28;20208;-67
2023/05/31 03:21:48;;;;;;;9.63;5.80;;;;;;;9.60;100.00;103079.00;5038861;28;20469;-67
2023/05/31 03:24:13;;;;;;;7.53;5.23;;;;;;;10.37;100.00;103201.66;5036681;28;20484;-67
2023/05/31 03:26:39;;;;;;;8.50;5.53;;;;;;;10.24;100.00;103186.78;5034927;28;20194;-67
2023/05/31 03:29:05;;;;;;;7.53;5.20;;;;;;;10.32;100.00;103230.72;5035412;28;20581;-66
2023/05/31 03:31:31;;;;;;;8.07;5.23;;;;;;;10.17;100.00;103184.66;5035151;28;20238;-67
2023/05/31 03:33:56;;;;;;;7.87;4.90;;;;;;;10.46;100.00;103245.59;5036479;28;20550;-67
2023/05/31 03:36:22;;;;;;;8.40;5.13;;;;;;;9.95;100.00;103174.16;5034388;28;20208;-67
2023/05/31 03:38:47;;;;;;;10.53;6.23;;;;;;;10.65;100.00;103247.44;5034158;28;20662;-67
2023/05/31 03:41:12;;;;;;;9.47;5.67;;;;;;;10.13;100.00;103188.63;5038007;28;20659;-67
2023/05/31 03:43:38;;;;;;;6.63;4.70;;;;;;;10.56;100.00;103238.41;5035045;28;20195;-67
2023/05/31 03:46:03;;;;;;;6.83;4.57;;;;;;;10.57;100.00;103266.09;5040068;28;20179;-67
2023/05/31 03:48:29;;;;;;;8.80;5.00;;;;;;;10.19;100.00;103211.34;5035276;28;20250;-66
2023/05/31 03:50:56;;;;;;;12.07;5.43;;;;;;;10.65;100.00;103293.09;5038461;28;20198;-67
2023/05/31 03:53:21;;;;;;;6.47;5.07;;;;;;;10.61;100.00;103284.44;5035292;28;20192;-67
2023/05/31 03:55:47;;;;;;;9.20;5.50;;;;;;;10.65;100.00;103306.50;5037662;28;20482;-66
2023/05/31 03:58:12;;;;;;;8.40;5.23;;;;;;;10.48;100.00;103258.88;5041227;28;20549;-66
2023/05/31 04:00:38;;;;;;;6.43;4.80;;;;;;;10.76;100.00;103281.34;5036852;28;20218;-67
2023/05/31 04:03:03;;;;;;;9.70;4.73;;;;;;;10.19;100.00;103214.88;5039376;28;20628;-67
2023/05/31 04:05:29;;;;;;;7.87;5.30;;;;;;;10.38;100.00;103267.72;5038470;28;20198;-66
2023/05/31 04:07:54;;;;;;;9.47;5.50;;;;;;;10.18;100.00;103201.59;5036831;28;20199;-66
2023/05/31 04:10:20;;;;;;;8.13;5.07;;;;;;;10.61;100.00;103284.44;5035865;28;20662;-66
2023/05/31 04:12:45;;;;;;;7.23;5.33;;;;;;;10.18;100.00;103191.75;5036408;28;20195;-66
2023/05/31 04:15:11;;;;;;;7.87;4.97;;;;;;;10.37;100.00;103236.53;5037524;28;20204;-66
2023/05/31 04:17:36;;;;;;;11.00;5.30;;;;;;;10.77;100.00;103318.81;5034916;28;20208;-66
2023/05/31 04:20:07;;;;;;;8.53;4.93;;;;;;;10.68;100.00;103289.28;5035861;28;20239;-66
2023/05/31 04:22:33;;;;;;;10.60;5.97;;;;;;;10.57;100.00;103272.28;5036982;28;20249;-66
2023/05/31 04:24:58;;;;;;;9.80;5.50;;;;;;;10.85;100.00;103308.22;5036679;28;20437;-66
2023/05/31 04:27:25;;;;;;;9.20;5.40;;;;;;;10.52;100.00;103260.28;5036622;28;20446;-66
2023/05/31 04:29:51;;;;;;;6.47;5.10;;;;;;;10.71;100.00;103300.56;5022249;28;20211;-66
2023/05/31 04:32:16;;;;;;;7.20;4.83;;;;;;;11.02;100.00;103349.66;5033677;28;20450;-66
2023/05/31 04:34:42;;;;;;;8.67;5.67;;;;;;;10.90;100.00;103320.38;5037806;28;20188;-66
2023/05/31 04:37:08;;;;;;;7.40;5.30;;;;;;;10.98;100.00;103356.25;5038931;28;20194;-66
2023/05/31 04:39:34;;;;;;;5.40;4.40;;;;;;;11.06;100.00;103363.63;5037597;28;21024;-66
2023/05/31 04:42:00;;;;;;;9.50;4.60;;;;;;;11.04;100.00;103358.38;5022483;28;20443;-66
2023/05/31 04:44:26;;;;;;;8.33;5.00;;;;;;;10.25;100.00;103244.81;5041568;28;20207;-66
2023/05/31 04:46:51;;;;;;;7.20;4.27;;;;;;;11.04;100.00;103387.09;5040238;28;20191;-66
2023/05/31 04:49:18;;;;;;;6.47;4.23;;;;;;;10.52;100.00;103305.91;5040129;28;20478;-66
2023/05/31 04:51:44;;;;;;;7.73;4.37;;;;;;;11.13;100.00;103406.88;5036796;28;20184;-67
2023/05/31 04:54:09;;;;;;;5.17;3.73;;;;;;;10.76;100.00;103362.75;5041213;28;20441;-67
2023/05/31 04:56:35;;;;;;;6.47;4.60;;;;;;;10.81;100.00;103381.13;5036583;28;20262;-66
2023/05/31 04:59:00;;;;;;;7.77;4.60;;;;;;;10.98;100.00;103398.38;5038586;28;20248;-67
2023/05/31 05:01:26;;;;;;;5.87;4.00;;;;;;;11.25;100.00;103467.56;5042302;28;20179;-67
2023/05/31 05:03:52;;;;;;;7.43;4.27;;;;;;;11.39;100.00;103482.44;5042310;28;20187;-67
2023/05/31 05:06:18;;;;;;;6.20;3.73;;;;;;;11.35;100.00;103486.41;5039533;28;20206;-67
2023/05/31 05:08:45;;;;;;;7.63;4.20;;;;;;;11.45;100.00;103512.28;5024233;28;20454;-67
2023/05/31 05:11:11;;;;;;;7.60;3.80;;;;;;;11.50;100.00;103522.63;5038620;28;20435;-67
2023/05/31 05:13:37;;;;;;;7.70;3.97;;;;;;;10.79;100.00;103426.03;5037567;28;20507;-67
2023/05/31 05:16:02;;;;;;;7.47;4.13;;;;;;;11.61;100.00;103583.47;5028259;28;20943;-67
2023/05/31 05:18:29;;;;;;;9.90;3.87;;;;;;;11.58;100.00;103597.19;5027021;28;20262;-66
2023/05/31 05:20:54;;;;;;;6.60;4.07;;;;;;;11.71;100.00;103663.16;5033098;28;20184;-67
2023/05/31 05:23:21;;;;;;;6.03;3.50;;;;;;;11.69;100.00;103665.16;5017810;28;20979;-67
2023/05/31 05:25:46;;;;;;;6.20;3.50;;;;;;;11.15;100.00;103591.13;5026129;28;20248;-67
2023/05/31 05:28:11;;;;;;;4.83;3.80;;;;;;;11.91;100.00;103703.59;5024025;28;20523;-67
2023/05/31 05:30:37;;;;;;;9.10;3.60;;;;;;;11.89;100.00;103692.97;5031417;28;20774;-66
2023/05/31 05:33:03;;;;;;;11.03;3.37;;;;;;;11.94;100.00;103709.53;5037971;28;20184;-67
2023/05/31 05:35:28;;;;;;;5.57;2.93;;;;;;;12.16;100.00;103740.75;5021795;28;20531;-67
2023/05/31 05:37:55;;;;;;;6.23;2.90;;;;;;;12.25;100.00;103751.66;5038118;28;20185;-67
2023/05/31 05:40:20;;;;;;;6.87;2.93;;;;;;;12.26;100.00;103747.97;5039028;28;20204;-67
2023/05/31 05:42:48;;;;;;;5.03;2.47;;;;;;;11.98;100.00;103735.19;5038281;28;20500;-67
2023/05/31 05:45:13;;;;;;;6.50;2.60;;;;;;;12.30;100.00;103828.31;5036480;28;20184;-67
2023/05/31 05:47:39;;;;;;;4.33;2.40;;;;;;;12.16;100.00;103809.84;5035729;28;20483;-67
2023/05/31 05:50:05;;;;;;;4.00;2.20;;;;;;;12.16;100.00;103820.63;5034313;28;20207;-67
2023/05/31 05:52:30;;;;;;;4.83;2.30;;;;;;;12.46;100.00;103862.78;5034035;28;20334;-67
2023/05/31 05:54:56;;;;;;;3.03;2.23;;;;;;;12.40;100.00;103848.03;5034558;28;20553;-67
2023/05/31 05:57:21;;;;;;;6.00;2.80;;;;;;;11.52;100.00;103679.25;5038724;28;20187;-67
2023/05/31 05:59:47;;;;;;;3.70;2.40;;;;;;;12.53;100.00;103836.16;5037133;28;20204;-67
2023/05/31 06:02:12;;;;;;;3.33;2.23;;;;;;;12.46;100.00;103813.47;5021876;28;20183;-67
2023/05/31 06:04:38;;;;;;;2.93;2.03;;;;;;;12.69;100.00;103833.78;5039616;28;20192;-67
2023/05/31 06:07:03;;;;;;;3.63;1.87;;;;;;;11.95;100.00;103689.72;5038587;28;20183;-67
2023/05/31 06:09:29;;;;;;;5.30;2.60;;;;;;;12.81;100.00;103812.94;5022535;28;20355;-67
2023/05/31 06:11:54;;;;;;;6.37;2.30;;;;;;;12.78;100.00;103772.81;5039136;28;20236;-67
2023/05/31 06:14:20;;;;;;;3.17;2.47;;;;;;;12.72;100.00;103725.75;5037510;28;20198;-67
2023/05/31 06:16:45;;;;;;;5.40;1.90;;;;;;;12.39;100.00;103648.97;5037025;28;20619;-68
2023/05/31 06:19:11;;;;;;;5.60;2.50;;;;;;;12.90;100.00;103715.09;5032833;28;20633;-68
2023/05/31 06:21:36;;;;;;;2.97;2.10;;;;;;;13.04;100.00;103668.00;5039614;28;20210;-68
2023/05/31 06:24:04;;;;;;;4.50;2.40;;;;;;;13.04;100.00;103623.03;5036225;28;20661;-68
2023/05/31 06:26:30;;;;;;;3.50;1.67;;;;;;;12.52;100.00;103533.75;5036223;28;20653;-68
2023/05/31 06:28:59;;;;;;;4.50;2.00;;;;;;;12.62;100.00;103523.81;5035276;28;20457;-68
2023/05/31 06:31:26;;;;;;;3.40;1.90;;;;;;;13.00;100.00;103538.13;5036722;28;20638;-68
2023/05/31 06:33:51;;;;;;;3.47;1.80;;;;;;;12.78;100.00;103487.31;5037980;28;20474;-68
2023/05/31 06:36:17;;;;;;;3.10;1.77;;;;;;;13.29;100.00;103540.69;5039171;28;21004;-68
2023/05/31 06:38:42;;;;;;;4.93;1.80;;;;;;;13.20;100.00;103498.44;5038455;28;20238;-68
2023/05/31 06:41:08;;;;;;;6.07;2.30;;;;;;;13.32;100.00;103473.00;5039056;28;20191;-69
2023/05/31 06:43:34;;;;;;;2.80;1.57;;;;;;;13.35;100.00;103461.06;5037363;28;20195;-68
2023/05/31 06:45:59;;;;;;;4.20;1.80;;;;;;;13.23;100.00;103411.91;5038334;28;20426;-68
2023/05/31 06:48:25;;;;;;;2.20;1.40;;;;;;;12.99;100.00;103366.72;5039234;28;20180;-69
2023/05/31 06:50:50;;;;;;;2.93;1.60;;;;;;;13.31;100.00;103392.31;5037200;28;20272;-68
2023/05/31 06:53:16;;;;;;;2.60;1.73;;;;;;;13.57;100.00;103409.38;5037866;28;20716;-68
2023/05/31 06:55:41;;;;;;;4.60;1.90;;;;;;;13.57;100.00;103403.16;5037593;28;20708;-68
2023/05/31 06:58:07;;;;;;;2.80;1.60;;;;;;;13.65;100.00;103378.06;5037718;28;20548;-68
2023/05/31 07:00:32;;;;;;;1.77;1.43;;;;;;;13.76;100.00;103381.34;5037926;28;20218;-68
2023/05/31 07:02:57;;;;;;;3.27;1.33;;;;;;;13.73;100.00;103368.19;5038097;28;20180;-68
2023/05/31 07:05:23;;;;;;;3.47;1.63;;;;;;;13.41;100.00;103325.66;5039341;28;20186;-68
2023/05/31 07:07:48;;;;;;;2.60;1.47;;;;;;;13.69;100.00;103358.72;5035571;28;20645;-68
2023/05/31 07:10:15;;;;;;;3.70;1.93;;;;;;;13.92;100.00;103388.72;5033610;28;20206;-68
2023/05/31 07:12:40;;;;;;;3.77;1.67;;;;;;;13.91;100.00;103345.69;5031824;28;20195;-69
2023/05/31 07:15:08;;;;;;;3.40;2.17;;;;;;;14.00;100.00;103331.25;5028241;28;20471;-68
2023/05/31 07:17:34;;;;;;;3.57;1.77;;;;;;;14.02;100.00;103332.78;5036977;28;20179;-69
2023/05/31 07:19:59;;;;;;;6.80;2.20;;;;;;;13.54;100.00;103241.66;5037407;28;20958;-68
2023/05/31 07:22:25;;;;;;;3.90;1.67;;;;;;;13.93;100.00;103287.03;5039220;28;20181;-68
2023/05/31 07:24:50;;;;;;;3.33;1.87;;;;;;;14.13;100.00;103290.34;5039569;28;20177;-68
2023/05/31 07:27:16;;;;;;;3.10;1.90;;;;;;;14.18;100.00;103283.44;5038352;28;20184;-69
2023/05/31 07:29:41;;;;;;;3.70;1.60;;;;;;;14.22;100.00;103275.84;5037352;28;20204;-69
2023/05/31 07:32:07;;;;;;;4.07;1.70;;;;;;;13.78;100.00;103203.19;5037453;28;20183;-68
2023/05/31 07:34:32;;;;;;;3.83;1.60;;;;;;;14.04;100.00;103222.00;5033161;28;20180;-69
2023/05/31 07:36:58;;;;;;;3.23;1.60;;;;;;;14.42;100.00;103274.56;5037658;28;20249;-68
2023/05/31 07:39:23;;;;;;;6.20;1.70;;;;;;;14.40;100.00;103254.13;5033792;28;20201;-69
2023/05/31 07:41:48;;;;;;;3.10;1.93;;;;;;;14.15;100.00;103201.97;5037267;28;20184;-69
2023/05/31 07:44:16;;;;;;;3.73;2.00;;;;;;;14.42;100.00;103238.63;5021269;28;20180;-69
2023/05/31 07:46:42;;;;;;;5.27;2.00;;;;;;;14.20;100.00;103191.50;5038867;28;20201;-69
2023/05/31 07:49:07;;;;;;;3.80;1.70;;;;;;;14.18;100.00;103198.94;5038433;28;20454;-69
2023/05/31 07:51:33;;;;;;;3.70;1.90;;;;;;;14.60;100.00;103252.84;5037491;28;20463;-69
2023/05/31 07:53:59;;;;;;;3.90;1.90;;;;;;;13.72;100.00;103091.41;5041091;28;20190;-69
2023/05/31 07:56:25;;;;;;;4.03;1.53;;;;;;;14.24;100.00;103165.88;5038935;28;20204;-69
2023/05/31 07:58:50;;;;;;;2.20;1.57;;;;;;;14.62;100.00;103231.94;5041159;28;20204;-69
2023/05/31 08:01:16;;;;;;;3.47;1.70;;;;;;;14.42;100.00;103157.63;5040811;28;20418;-69
2023/05/31 08:03:41;;;;;;;5.00;2.17;;;;;;;14.76;100.00;103194.47;5039417;28;20184;-70
2023/05/31 08:06:07;;;;;;;4.23;2.00;;;;;;;14.86;100.00;103187.84;5038497;28;20188;-69
2023/05/31 08:08:33;;;;;;;6.17;2.00;;;;;;;14.69;100.00;103167.25;5040478;28;20191;-69
2023/05/31 08:11:00;;;;;;;5.30;1.93;;;;;;;14.97;100.00;103197.47;5041746;28;20180;-69
2023/05/31 08:13:26;;;;;;;3.03;1.50;;;;;;;15.01;100.00;103196.13;5040842;28;20423;-69
2023/05/31 08:15:54;;;;;;;4.30;1.70;;;;;;;14.94;100.00;103189.72;5039371;28;20560;-69
2023/05/31 08:18:20;;;;;;;3.30;1.87;;;;;;;15.05;100.00;103178.56;5040004;28;20488;-70
2023/05/31 08:20:45;;;;;;;4.83;1.93;;;;;;;14.94;100.00;103134.84;5039318;28;20470;-69
2023/05/31 08:23:21;;;;;;;4.23;2.00;;;;;;;14.86;100.00;103109.50;5040794;28;20658;-70
2023/05/31 08:25:47;;;;;;;3.63;2.10;;;;;;;15.27;100.00;103141.81;5040567;28;20171;-70
2023/05/31 08:28:13;;;;;;;5.00;2.30;;;;;;;14.96;100.00;103094.97;5042882;28;20423;-70
2023/05/31 08:30:39;;;;;;;7.90;2.50;;;;;;;14.98;100.00;103088.34;5039811;28;20520;-70
2023/05/31 08:33:04;;;;;;;9.30;2.20;;;;;;;15.59;100.00;103124.66;5041099;28;20924;-69
2023/05/31 08:35:30;;;;;;;5.37;2.33;;;;;;;15.65;100.00;103124.94;5040319;28;20200;-69
2023/05/31 08:37:55;;;;;;;7.50;2.93;;;;;;;15.59;100.00;103112.97;5039248;28;20215;-69
2023/05/31 08:40:22;;;;;;;6.13;2.23;;;;;;;15.70;100.00;103125.28;5039947;28;20212;-70
2023/05/31 08:42:55;;;;;;;5.60;2.70;;;;;;;15.78;100.00;103126.09;5027158;28;20188;-69
2023/05/31 08:45:20;;;;;;;5.77;2.33;;;;;;;16.04;100.00;103141.16;5040832;28;20407;-69
2023/05/31 08:47:58;;;;;;;7.30;2.50;;;;;;;15.67;100.00;103055.28;5039486;28;20414;-69
2023/05/31 08:50:26;;;;;;;6.47;2.57;;;;;;;15.87;100.00;103085.44;5027929;28;20454;-69
2023/05/31 08:52:52;;;;;;;6.80;3.00;;;;;;;16.04;100.00;103130.34;5038592;28;20429;-69
2023/05/31 08:55:19;;;;;;;10.87;3.23;;;;;;;15.92;100.00;103115.53;5039461;28;20466;-69
2023/05/31 08:57:46;;;;;;;6.00;3.60;;;;;;;15.66;100.00;103077.94;5040976;28;20419;-70
2023/05/31 09:00:12;;;;;;;10.10;3.80;;;;;;;15.87;100.00;103110.66;5039262;28;20479;-69
2023/05/31 09:02:38;;;;;;;6.33;3.27;;;;;;;15.17;100.00;103033.06;5022609;28;20438;-69
2023/05/31 09:05:05;;;;;;;7.63;3.63;;;;;;;15.39;100.00;103058.50;5029905;28;20434;-69
2023/05/31 09:07:31;;;;;;;9.90;3.53;;;;;;;15.52;100.00;103115.53;5041155;28;20925;-69
2023/05/31 09:09:56;;;;;;;5.10;2.90;;;;;;;15.66;100.00;103119.38;5031372;28;20465;-69
2023/05/31 09:12:22;;;;;;;8.30;3.80;;;;;;;15.49;100.00;103102.38;5049668;22;20175;-72
2023/05/31 09:14:48;;;;;;;6.63;3.87;;;;;;;15.33;100.00;103073.56;4981474;28;20192;-72
2023/05/31 09:17:13;;;;;;;5.23;2.97;;;;;;;14.57;100.00;102945.31;4999510;28;20746;-71
2023/05/31 09:19:55;;;;;;;8.20;3.70;;;;;;;15.58;100.00;103104.00;5000859;28;20452;-72
2023/05/31 09:22:24;;;;;;;6.37;3.17;;;;;;;15.04;100.00;103019.25;5000254;28;20205;-71
2023/05/31 09:25:00;;;;;;;8.37;4.00;;;;;;;15.35;100.00;103070.66;5000360;28;20819;-72
2023/05/31 09:27:33;;;;;;;6.17;3.60;;;;;;;15.40;100.00;103081.78;4998991;28;20799;-71
2023/05/31 09:30:04;;;;;;;7.00;3.57;;;;;;;15.43;100.00;103062.50;5002874;28;20428;-71
2023/05/31 09:32:31;;;;;;;8.73;3.23;;;;;;;15.56;100.00;103078.16;4999944;28;20467;-71
2023/05/31 09:35:24;;;;;;;9.23;3.87;;;;;;;15.76;100.00;103092.09;4999952;28;20470;-71
2023/05/31 09:37:51;;;;;;;5.13;3.20;;;;;;;15.77;100.00;103072.16;4992154;28;20284;-72
2023/05/31 09:40:26;;;;;;;5.80;4.00;;;;;;;15.63;100.00;103073.72;4988214;28;20769;-72
2023/05/31 09:42:53;;;;;;;6.00;3.60;;;;;;;15.68;100.00;103065.97;4998602;28;20457;-72
2023/05/31 09:45:20;;;;;;;7.30;3.67;;;;;;;15.82;100.00;103075.16;4999661;28;20428;-72
2023/05/31 09:47:46;;;;;;;9.27;4.13;;;;;;;14.34;100.00;102836.34;4999219;28;20435;-72
2023/05/31 09:50:16;;;;;;;6.17;3.70;;;;;;;15.60;100.00;103058.69;4998512;28;20429;-72
2023/05/31 09:52:44;;;;;;;6.43;3.90;;;;;;;15.64;100.00;103059.16;5000888;28;21061;-72
2023/05/31 09:55:11;;;;;;;7.97;3.50;;;;;;;15.75;100.00;103055.25;4998353;28;20473;-72
2023/05/31 09:57:43;;;;;;;4.30;3.00;;;;;;;15.91;100.00;103047.03;5001045;28;20420;-72
2023/05/31 10:00:17;;;;;;;6.37;2.60;;;;;;;15.48;100.00;102967.34;5000472;28;20420;-72
2023/05/31 10:02:44;;;;;;;5.40;3.43;;;;;;;15.87;100.00;103021.34;4999533;28;20517;-72
2023/05/31 10:05:13;;;;;;;9.70;4.03;;;;;;;15.90;100.00;103026.38;4998817;28;20428;-71
2023/05/31 10:07:46;;;;;;;4.97;3.00;;;;;;;15.91;100.00;103021.81;4999678;28;20448;-72
2023/05/31 10:10:11;;;;;;;6.20;2.30;;;;;;;15.58;100.00;102943.56;4998207;28;20842;-72
2023/05/31 10:12:54;;;;;;;5.50;2.50;;;;;;;15.89;100.00;102964.34;5000890;28;20472;-71
2023/05/31 10:15:25;;;;;;;6.60;2.57;;;;;;;14.63;100.00;102785.25;4998446;28;20235;-71
2023/05/31 10:18:00;;;;;;;5.10;2.50;;;;;;;16.26;100.00;103013.06;5000683;28;20421;-72
2023/05/31 10:20:32;;;;;;;4.67;2.50;;;;;;;15.64;100.00;102880.63;4987517;28;20522;-72
2023/05/31 10:23:02;;;;;;;3.10;2.20;;;;;;;16.01;100.00;102943.91;5002247;28;20793;-71
2023/05/31 10:25:29;;;;;;;6.30;2.50;;;;;;;16.43;100.00;102983.09;4981103;28;20460;-71
2023/05/31 10:28:00;;;;;;;4.33;1.90;;;;;;;16.42;100.00;102986.84;4999631;28;20438;-72
2023/05/31 10:30:30;;;;;;;4.10;2.43;;;;;;;15.55;100.00;102860.09;4999916;28;20520;-72
2023/05/31 10:33:07;;;;;;;3.83;2.10;;;;;;;16.33;100.00;102967.13;4999286;28;20452;-71
2023/05/31 10:35:33;;;;;;;6.30;2.50;;;;;;;16.06;100.00;102903.63;4997291;28;20502;-71
2023/05/31 10:38:00;;;;;;;4.47;2.23;;;;;;;15.74;100.00;102839.84;4997332;28;20436;-70
2023/05/31 10:40:52;;;;;;;4.17;2.40;;;;;;;16.32;100.00;102960.03;5000506;28;20261;-71
2023/05/31 10:43:32;;;;;;;4.20;2.37;;;;;;;16.07;100.00;102885.50;4998894;28;20845;-72
2023/05/31 10:46:09;;;;;;;5.43;2.40;;;;;;;16.12;100.00;102880.38;4999877;28;20941;-72
2023/05/31 10:49:08;;;;;;;4.70;2.20;;;;;;;16.30;100.00;102894.38;4981781;28;20432;-71
2023/05/31 10:51:46;;;;;;;6.83;2.30;;;;;;;16.70;100.00;102936.38;4958665;28;20479;-71
2023/05/31 10:54:41;;;;;;;4.57;2.57;;;;;;;16.31;100.00;102874.38;5001142;28;20966;-71
2023/05/31 10:57:07;;;;;;;4.93;2.57;;;;;;;16.42;100.00;102919.13;4971353;28;20807;-72
2023/05/31 10:59:45;;;;;;;8.90;2.17;;;;;;;16.57;100.00;102886.59;4995976;28;20451;-71
2023/05/31 11:02:11;;;;;;;5.43;2.20;;;;;;;16.16;100.00;102803.16;4997614;28;20699;-72
2023/05/31 11:04:37;;;;;;;4.07;2.30;;;;;;;16.11;100.00;102794.75;4998667;28;20435;-72
2023/05/31 11:07:15;;;;;;;4.47;2.10;;;;;;;16.46;100.00;102845.44;5000074;28;20437;-71
2023/05/31 11:09:42;;;;;;;5.63;3.17;;;;;;;16.91;100.00;102911.25;5001200;28;20545;-72
2023/05/31 11:12:12;;;;;;;6.90;3.00;;;;;;;16.06;100.00;102772.84;4987853;28;20425;-71
2023/05/31 11:14:37;;;;;;;4.40;2.30;;;;;;;16.97;100.00;102890.66;4981750;28;20439;-72
2023/05/31 11:17:04;;;;;;;6.97;3.03;;;;;;;17.08;100.00;102894.75;4998513;28;20530;-72